Strona główna
METAR-TAF:

METAR-TAF

Lotnisko :

Port lotniczy Marka

Amman, Jordania

Szerokość geograficzna: 31-59N, Długość geograficzna: 035-59E, wysokość: 767 m

Aktualna obserwacja pogody

Raport powstał 9 minut temu, godzina 07:00 UTC
Wiatr 13 kt od zachód
Temperatura 27°C
Wilgotność 26%
Ciśnienie 1016 hPa
Widzialność: 5000 m
zmętnienie

METAR: OJAM 200700Z 26013KT 5000 HZ NSC 27/06 Q1016 NOSIG

czas: 10:09 (07:09 UTC)

Prognoza

Raport powstał 1 godzina i 18 minut temu, godzina 05:51 UTC
Prognoza ważna od 20 godzina 06 UTC do 21 godzina 12 UTC
Wiatr 10 kt od zachodnio-północny zachód
Widzialność: 6000 m
Przejściowo
od 20 godzina 12 UTC do 20 godzina 21 UTC
Wiatr 14 kt od zachodnio-północny zachód
Widzialność: 4000 m
zmętnienie

TAF: OJAM 200551Z 2006/2112 29010KT 6000 NSC TEMPO 2012/2021 30014KT 4000 HZ NSC

Obserwacja i prognoza pogody dla ponad 4000 lotnisk (raport METAR i TAF).

Dostępne stacje oznaczono żółtymi i czerwonymi punktami na mapie.

Najedź kursorem aby zobaczyć nazwę stacji.

Kliknij aby zobaczyć obserwacje i prognozy pogody.

Aby zmienić mapę: kliknij na zielony przycisk z czarnym krzyżykiem, aby powiększyć; na zielony przycisk z myślnikiem, aby pomniejszyć; na zielone strzałki, aby przejść do map sąsiednich.


METAR-TAF: